createdAt,value
2018-10-19T00:00:36.549Z,9.00
2018-10-19T00:03:11.426Z,9.00
2018-10-19T00:05:46.299Z,9.00
2018-10-19T00:08:21.024Z,8.90
2018-10-19T00:10:55.800Z,8.90
2018-10-19T00:13:31.387Z,8.90
2018-10-19T00:16:06.219Z,8.80
2018-10-19T00:18:41.000Z,8.80
2018-10-19T00:21:16.094Z,8.70
2018-10-19T00:23:50.655Z,8.50
2018-10-19T00:26:25.547Z,8.60
2018-10-19T00:29:00.048Z,8.60
2018-10-19T00:31:34.910Z,8.50
2018-10-19T00:34:09.697Z,8.60
2018-10-19T00:36:44.559Z,8.30
2018-10-19T00:39:19.415Z,8.20
2018-10-19T00:41:54.306Z,8.30
2018-10-19T00:44:29.073Z,8.40
2018-10-19T00:47:03.733Z,8.40
2018-10-19T00:49:38.634Z,8.40
2018-10-19T00:52:13.473Z,8.30
2018-10-19T00:54:48.212Z,8.40
2018-10-19T00:57:23.131Z,8.30
2018-10-19T00:59:58.209Z,8.20
2018-10-19T01:02:32.926Z,8.20
2018-10-19T01:05:07.631Z,8.10
2018-10-19T01:07:42.445Z,8.10
2018-10-19T01:10:21.661Z,8.00
2018-10-19T01:12:57.843Z,7.90
2018-10-19T01:15:32.595Z,8.00
2018-10-19T01:18:07.286Z,8.00
2018-10-19T01:20:42.026Z,8.00
2018-10-19T01:23:17.007Z,8.00
2018-10-19T01:25:51.987Z,8.00
2018-10-19T01:28:26.820Z,8.00
2018-10-19T01:31:01.562Z,7.90
2018-10-19T01:33:36.534Z,7.90
2018-10-19T01:36:11.222Z,7.90
2018-10-19T01:38:45.888Z,7.90
2018-10-19T01:41:20.658Z,7.80
2018-10-19T01:43:55.716Z,7.80
2018-10-19T01:46:30.839Z,7.80
2018-10-19T01:49:05.866Z,7.80
2018-10-19T01:51:40.590Z,7.60
2018-10-19T01:54:15.625Z,7.50
2018-10-19T01:56:50.350Z,7.60
2018-10-19T01:59:25.397Z,7.60
2018-10-19T02:02:00.218Z,7.40
2018-10-19T02:04:35.765Z,7.40
2018-10-19T02:07:10.609Z,7.40
2018-10-19T02:09:45.496Z,7.40
2018-10-19T02:12:20.391Z,7.50
2018-10-19T02:14:55.101Z,7.40
2018-10-19T02:17:30.031Z,7.40
2018-10-19T02:20:04.854Z,7.40
2018-10-19T02:22:39.646Z,7.40
2018-10-19T02:25:14.542Z,7.40
2018-10-19T02:27:49.338Z,7.30
2018-10-19T02:30:24.127Z,7.30
2018-10-19T02:32:59.111Z,7.20
2018-10-19T02:35:34.090Z,7.20
2018-10-19T02:38:08.821Z,7.20
2018-10-19T02:40:43.496Z,7.20
2018-10-19T02:43:18.186Z,7.20
2018-10-19T02:45:52.851Z,7.20
2018-10-19T02:48:27.807Z,7.20
2018-10-19T02:51:02.635Z,7.20
2018-10-19T02:53:37.565Z,7.30
2018-10-19T02:56:12.747Z,7.20
2018-10-19T02:58:47.475Z,7.20
2018-10-19T03:01:22.861Z,7.20
2018-10-19T03:03:57.607Z,7.10
2018-10-19T03:06:32.321Z,7.00
2018-10-19T03:09:09.802Z,7.10
2018-10-19T03:11:44.771Z,7.10
2018-10-19T03:14:20.372Z,7.00
2018-10-19T03:16:55.016Z,7.00
2018-10-19T03:19:29.913Z,7.00
2018-10-19T03:22:05.295Z,7.00
2018-10-19T03:24:40.086Z,7.10
2018-10-19T03:27:15.273Z,7.00
2018-10-19T03:29:50.338Z,7.00
2018-10-19T03:32:25.133Z,7.00
2018-10-19T03:35:00.094Z,7.00
2018-10-19T03:37:35.206Z,7.00
2018-10-19T03:40:10.006Z,6.90
2018-10-19T03:42:44.835Z,6.80
2018-10-19T03:45:20.213Z,6.80
2018-10-19T03:47:55.004Z,6.70
2018-10-19T03:50:29.769Z,6.60
2018-10-19T03:53:04.896Z,6.60
2018-10-19T03:55:39.937Z,6.60
2018-10-19T03:58:14.571Z,6.60
2018-10-19T04:00:49.202Z,6.60
2018-10-19T04:03:24.187Z,6.50
2018-10-19T04:05:59.130Z,6.40
2018-10-19T04:08:34.058Z,6.50
2018-10-19T04:11:08.985Z,6.50
2018-10-19T04:13:44.197Z,6.40
2018-10-19T04:16:19.110Z,6.40
2018-10-19T04:18:54.049Z,6.40
2018-10-19T04:21:28.805Z,6.40
2018-10-19T04:24:04.014Z,6.30
2018-10-19T04:26:38.702Z,6.30
2018-10-19T04:29:13.886Z,6.40
2018-10-19T04:31:48.713Z,6.40
2018-10-19T04:34:23.433Z,6.30
2018-10-19T04:37:02.874Z,6.30
2018-10-19T04:39:37.798Z,6.30
2018-10-19T04:42:13.471Z,6.30
2018-10-19T04:44:48.449Z,6.30
2018-10-19T04:47:23.305Z,6.30
2018-10-19T04:49:58.075Z,6.40
2018-10-19T04:52:32.872Z,6.30
2018-10-19T04:55:10.104Z,6.30
2018-10-19T04:57:44.854Z,6.30
2018-10-19T05:00:20.720Z,6.40
2018-10-19T05:02:55.355Z,6.40
2018-10-19T05:05:30.303Z,6.40
2018-10-19T05:08:05.210Z,6.40
2018-10-19T05:10:40.114Z,6.40
2018-10-19T05:13:14.815Z,6.40
2018-10-19T05:15:49.627Z,6.50
2018-10-19T05:18:24.301Z,6.50
2018-10-19T05:20:59.126Z,6.50
2018-10-19T05:23:33.857Z,6.60
2018-10-19T05:26:08.775Z,6.60
2018-10-19T05:28:43.522Z,6.70
2018-10-19T05:31:18.550Z,6.60
2018-10-19T05:33:55.332Z,6.70
2018-10-19T05:36:30.250Z,6.80
2018-10-19T05:39:07.836Z,6.90
2018-10-19T05:41:42.509Z,6.90
2018-10-19T05:44:17.255Z,6.90
2018-10-19T05:46:52.453Z,6.90
2018-10-19T05:49:27.365Z,7.00
2018-10-19T05:52:02.223Z,7.00
2018-10-19T05:54:37.060Z,7.00
2018-10-19T05:57:11.846Z,7.00
2018-10-19T05:59:46.619Z,7.10
2018-10-19T06:02:22.082Z,7.10
2018-10-19T06:04:56.880Z,7.10
2018-10-19T06:07:31.897Z,7.20
2018-10-19T06:10:07.638Z,7.30
2018-10-19T06:12:42.377Z,7.40
2018-10-19T06:15:17.192Z,7.40
2018-10-19T06:17:51.933Z,7.50
2018-10-19T06:20:26.602Z,7.50
2018-10-19T06:23:01.591Z,7.60
2018-10-19T06:25:37.386Z,7.60
2018-10-19T06:28:12.369Z,7.70
2018-10-19T06:30:47.008Z,7.70
2018-10-19T06:33:22.016Z,7.70
2018-10-19T06:35:56.972Z,7.70
2018-10-19T06:38:31.768Z,7.70
2018-10-19T06:41:06.724Z,7.70
2018-10-19T06:43:41.628Z,7.80
2018-10-19T06:46:16.302Z,7.90
2018-10-19T06:48:51.142Z,7.90
2018-10-19T06:51:26.438Z,8.10
2018-10-19T06:54:01.101Z,8.20
2018-10-19T06:56:36.023Z,8.30
2018-10-19T06:59:11.007Z,8.20
2018-10-19T07:01:45.797Z,8.20
2018-10-19T07:04:20.650Z,8.30
2018-10-19T07:06:55.530Z,8.40
2018-10-19T07:09:30.387Z,8.40
2018-10-19T07:12:06.493Z,8.40
2018-10-19T07:14:41.271Z,8.40
2018-10-19T07:17:16.076Z,8.50
2018-10-19T07:19:50.865Z,8.50
2018-10-19T07:22:25.962Z,8.60
2018-10-19T07:25:00.571Z,8.60
2018-10-19T07:27:35.348Z,8.80
2018-10-19T07:30:10.288Z,8.70
2018-10-19T07:32:45.343Z,8.90
2018-10-19T07:35:20.214Z,9.00
2018-10-19T07:37:55.072Z,8.90
2018-10-19T07:40:30.437Z,9.10
2018-10-19T07:43:05.837Z,9.10
2018-10-19T07:45:41.606Z,9.20
2018-10-19T07:48:16.458Z,9.30
2018-10-19T07:50:51.430Z,9.30
2018-10-19T07:53:26.070Z,9.10
2018-10-19T07:56:00.945Z,9.30
2018-10-19T07:58:35.951Z,9.40
2018-10-19T08:01:10.849Z,9.50
2018-10-19T08:03:46.706Z,9.50
2018-10-19T08:06:21.440Z,9.50
2018-10-19T08:08:56.268Z,9.50
2018-10-19T08:11:31.385Z,9.60
2018-10-19T08:14:06.552Z,9.60
2018-10-19T08:16:41.573Z,9.70
2018-10-19T08:19:16.497Z,9.80
2018-10-19T08:21:51.555Z,9.80
2018-10-19T08:24:26.371Z,10.00
2018-10-19T08:27:01.228Z,9.90
2018-10-19T08:29:35.914Z,9.90
2018-10-19T08:32:10.727Z,10.00
2018-10-19T08:34:45.694Z,10.00
2018-10-19T08:37:20.519Z,9.90
2018-10-19T08:39:55.558Z,10.10
2018-10-19T08:42:30.450Z,9.90
2018-10-19T08:45:06.315Z,10.20
2018-10-19T08:47:41.888Z,10.20
2018-10-19T08:50:16.917Z,10.20
2018-10-19T08:52:51.643Z,10.30
2018-10-19T08:55:26.390Z,10.40
2018-10-19T08:58:01.555Z,10.40
2018-10-19T09:00:36.745Z,10.60
2018-10-19T09:03:11.507Z,10.70
2018-10-19T09:05:46.412Z,10.80
2018-10-19T09:08:21.321Z,10.90
2018-10-19T09:10:56.158Z,11.00
2018-10-19T09:13:31.113Z,10.80
2018-10-19T09:16:06.247Z,10.80
2018-10-19T09:18:41.111Z,10.80
2018-10-19T09:21:16.449Z,10.70
2018-10-19T09:23:51.273Z,10.70
2018-10-19T09:26:25.880Z,10.70
2018-10-19T09:29:00.661Z,10.70
2018-10-19T09:31:35.639Z,11.00
2018-10-19T09:34:10.590Z,11.20
2018-10-19T09:36:45.482Z,11.10
2018-10-19T09:39:20.872Z,11.20
2018-10-19T09:41:55.812Z,11.20
2018-10-19T09:44:30.680Z,11.30
2018-10-19T09:47:06.341Z,11.20
2018-10-19T09:49:41.559Z,11.00
2018-10-19T09:52:16.270Z,11.00
2018-10-19T09:54:50.998Z,11.00
2018-10-19T09:57:25.890Z,11.20
2018-10-19T10:00:00.626Z,11.30
2018-10-19T10:02:35.445Z,11.20
2018-10-19T10:05:10.376Z,11.20
2018-10-19T10:07:45.328Z,11.30
2018-10-19T10:10:20.256Z,11.40
2018-10-19T10:12:55.043Z,11.30
2018-10-19T10:15:30.214Z,11.20
2018-10-19T10:18:05.565Z,11.10
2018-10-19T10:20:40.277Z,11.40
2018-10-19T10:23:15.062Z,11.70
2018-10-19T10:25:50.047Z,11.80
2018-10-19T10:28:24.874Z,11.70
2018-10-19T10:31:00.036Z,11.80
2018-10-19T10:33:34.954Z,11.80
2018-10-19T10:36:09.785Z,11.90
2018-10-19T10:38:44.948Z,12.10
2018-10-19T10:41:19.874Z,12.40
2018-10-19T10:43:54.874Z,12.60
2018-10-19T10:46:29.631Z,12.50
2018-10-19T10:49:04.374Z,12.70
2018-10-19T10:51:39.387Z,12.70
2018-10-19T10:54:14.395Z,12.80
2018-10-19T10:56:49.273Z,12.60
2018-10-19T10:59:23.985Z,12.20
2018-10-19T11:01:58.691Z,12.60
2018-10-19T11:04:33.510Z,13.10
2018-10-19T11:07:08.264Z,13.50
2018-10-19T11:09:43.243Z,13.80
2018-10-19T11:12:18.111Z,13.90
2018-10-19T11:14:52.955Z,13.70
2018-10-19T11:17:27.769Z,14.00
2018-10-19T11:20:02.899Z,14.60
2018-10-19T11:22:38.341Z,15.60
2018-10-19T11:25:13.709Z,16.00
2018-10-19T11:27:49.648Z,16.90
2018-10-19T11:30:25.016Z,17.00
2018-10-19T11:33:00.607Z,17.10
2018-10-19T11:35:35.887Z,17.90
2018-10-19T11:38:11.235Z,18.50
2018-10-19T11:40:46.539Z,19.30
2018-10-19T11:43:21.801Z,19.70
2018-10-19T11:45:57.291Z,20.90
2018-10-19T11:48:32.777Z,20.80
2018-10-19T11:51:08.454Z,20.80
2018-10-19T11:53:43.848Z,21.70
2018-10-19T11:56:19.282Z,22.30
2018-10-19T11:58:54.576Z,22.10
2018-10-19T12:01:29.770Z,22.20
2018-10-19T12:04:05.520Z,22.60
2018-10-19T12:06:40.953Z,22.00
2018-10-19T12:09:16.476Z,22.20
2018-10-19T12:11:52.287Z,20.80
2018-10-19T12:14:27.674Z,20.60
2018-10-19T12:17:03.008Z,21.10
2018-10-19T12:19:38.511Z,20.70
2018-10-19T12:22:13.813Z,21.70
2018-10-19T12:24:50.188Z,21.30
2018-10-19T12:27:25.582Z,21.90
2018-10-19T12:30:01.026Z,20.70
2018-10-19T12:32:36.691Z,21.90
2018-10-19T12:35:13.726Z,22.80
2018-10-19T12:37:48.877Z,23.20
2018-10-19T12:40:24.216Z,23.10
2018-10-19T12:42:59.702Z,23.40
2018-10-19T12:46:46.930Z,24.60
2018-10-19T12:49:23.334Z,24.50
2018-10-19T12:51:58.806Z,23.90
2018-10-19T12:54:34.241Z,24.20
2018-10-19T12:57:09.572Z,22.90
2018-10-19T12:59:44.735Z,23.80
2018-10-19T13:02:20.287Z,24.20
2018-10-19T13:04:55.400Z,24.40
2018-10-19T13:07:30.678Z,23.60
2018-10-19T13:10:06.213Z,23.20
2018-10-19T13:12:41.425Z,23.60
2018-10-19T13:15:16.535Z,24.80
2018-10-19T13:17:51.637Z,25.00
2018-10-19T13:20:26.578Z,24.40
2018-10-19T13:23:02.177Z,25.10
2018-10-19T13:25:37.615Z,24.30
2018-10-19T13:28:13.050Z,22.90
2018-10-19T13:30:48.285Z,23.90
2018-10-19T13:33:23.841Z,24.00
2018-10-19T13:35:59.271Z,24.50
2018-10-19T13:38:34.766Z,24.10
2018-10-19T13:41:09.968Z,24.60
2018-10-19T13:43:45.699Z,24.90
2018-10-19T13:46:21.152Z,24.40
2018-10-19T13:48:56.642Z,24.00
2018-10-19T13:51:32.240Z,24.30
2018-10-19T13:54:07.392Z,24.30
2018-10-19T13:56:42.829Z,24.50
2018-10-19T13:59:17.881Z,24.40
2018-10-19T14:01:52.951Z,27.90
2018-10-19T14:04:28.232Z,26.10
2018-10-19T14:07:03.782Z,24.70
2018-10-19T14:09:38.969Z,24.10
2018-10-19T14:12:13.943Z,24.30
2018-10-19T14:14:49.022Z,24.10
2018-10-19T14:17:24.088Z,24.10
2018-10-19T14:19:59.636Z,24.70
2018-10-19T14:22:35.064Z,25.00
2018-10-19T14:25:11.849Z,24.40
2018-10-19T14:27:47.175Z,24.70
2018-10-19T14:30:22.846Z,24.60
2018-10-19T14:32:58.690Z,24.10
2018-10-19T14:35:34.248Z,24.50
2018-10-19T14:38:09.812Z,24.50
2018-10-19T14:40:45.287Z,24.00
2018-10-19T14:43:20.623Z,23.80
2018-10-19T14:45:55.867Z,23.60
2018-10-19T14:48:31.951Z,23.20
2018-10-19T14:51:07.488Z,23.60
2018-10-19T14:53:43.427Z,23.20
2018-10-19T14:56:18.898Z,23.40
2018-10-19T14:58:54.533Z,23.50
2018-10-19T15:01:30.007Z,23.00
2018-10-19T15:04:07.041Z,23.20
2018-10-19T15:06:42.754Z,22.60
2018-10-19T15:09:18.325Z,21.70
2018-10-19T15:11:53.943Z,21.10
2018-10-19T15:14:30.310Z,20.70
2018-10-19T15:17:06.458Z,20.50
2018-10-19T15:19:41.782Z,20.20
2018-10-19T15:22:17.242Z,20.00
2018-10-19T15:24:52.859Z,19.80
2018-10-19T15:27:28.230Z,19.50
2018-10-19T15:30:03.654Z,19.20
2018-10-19T15:32:39.239Z,19.20
2018-10-19T15:35:14.577Z,19.20
2018-10-19T15:37:49.927Z,19.10
2018-10-19T15:40:25.405Z,18.80
2018-10-19T15:43:00.836Z,18.90
2018-10-19T15:45:36.094Z,18.90
2018-10-19T15:48:11.889Z,19.00
2018-10-19T15:50:47.601Z,18.90
2018-10-19T15:53:22.950Z,18.70
2018-10-19T15:55:58.311Z,18.60
2018-10-19T15:58:33.953Z,18.20
2018-10-19T16:01:09.718Z,18.00
2018-10-19T16:03:45.309Z,17.60
2018-10-19T16:06:20.790Z,17.60
2018-10-19T16:08:56.054Z,17.50
2018-10-19T16:11:32.469Z,17.40
2018-10-19T16:14:07.324Z,17.10
2018-10-19T16:16:42.205Z,16.70
2018-10-19T16:19:17.141Z,16.40
2018-10-19T16:21:51.947Z,16.50
2018-10-19T16:24:26.904Z,16.40
2018-10-19T16:27:01.995Z,16.20
2018-10-19T16:29:36.957Z,16.00
2018-10-19T16:32:12.418Z,15.90
2018-10-19T16:34:47.219Z,15.90
2018-10-19T16:37:22.234Z,15.80
2018-10-19T16:39:57.079Z,15.70
2018-10-19T16:42:32.021Z,15.60
2018-10-19T16:45:08.224Z,15.40
2018-10-19T16:47:43.180Z,15.30
2018-10-19T16:50:18.156Z,15.20
2018-10-19T16:52:53.066Z,15.10
2018-10-19T16:55:28.070Z,15.10
2018-10-19T16:58:03.012Z,14.90
2018-10-19T17:00:37.798Z,14.80
2018-10-19T17:03:12.993Z,14.70
2018-10-19T17:05:48.054Z,14.60
2018-10-19T17:08:22.902Z,14.50
2018-10-19T17:10:57.683Z,14.40
2018-10-19T17:13:32.405Z,14.30
2018-10-19T17:16:07.201Z,14.20
2018-10-19T17:18:42.049Z,14.20
2018-10-19T17:21:16.988Z,14.10
2018-10-19T17:23:51.954Z,13.90
2018-10-19T17:26:26.729Z,13.80
2018-10-19T17:29:01.508Z,13.70
2018-10-19T17:31:36.607Z,13.70
2018-10-19T17:34:11.619Z,13.60
2018-10-19T17:36:46.398Z,13.50
2018-10-19T17:39:21.137Z,13.40
2018-10-19T17:41:55.881Z,13.20
2018-10-19T17:44:30.777Z,13.10
2018-10-19T17:47:05.999Z,13.10
2018-10-19T17:49:41.160Z,13.00
2018-10-19T17:52:16.470Z,12.90
2018-10-19T17:54:51.251Z,12.90
2018-10-19T17:57:26.261Z,12.90
2018-10-19T18:00:01.057Z,12.80
2018-10-19T18:02:36.034Z,12.70
2018-10-19T18:05:10.824Z,12.70
2018-10-19T18:07:45.700Z,12.50
2018-10-19T18:10:20.663Z,12.50
2018-10-19T18:12:55.297Z,12.30
2018-10-19T18:15:30.358Z,12.30
2018-10-19T18:18:05.643Z,12.30
2018-10-19T18:20:40.385Z,12.30
2018-10-19T18:23:15.379Z,12.20
2018-10-19T18:25:50.218Z,12.20
2018-10-19T18:28:24.999Z,12.10
2018-10-19T18:31:00.001Z,12.00
2018-10-19T18:33:34.864Z,11.80
2018-10-19T18:36:09.734Z,11.80
2018-10-19T18:38:44.541Z,11.70
2018-10-19T18:41:19.762Z,11.60
2018-10-19T18:43:54.858Z,11.60
2018-10-19T18:46:29.944Z,11.50
2018-10-19T18:49:04.768Z,11.40
2018-10-19T18:51:39.707Z,11.40
2018-10-19T18:54:14.472Z,11.40
2018-10-19T18:56:49.232Z,11.30
2018-10-19T18:59:23.938Z,11.30
2018-10-19T19:01:58.643Z,11.10
2018-10-19T19:04:33.809Z,11.00
2018-10-19T19:07:08.642Z,10.90
2018-10-19T19:09:47.638Z,10.90
2018-10-19T19:12:22.749Z,10.90
2018-10-19T19:14:57.523Z,10.90
2018-10-19T19:17:32.530Z,10.80
2018-10-19T19:20:13.525Z,10.70
2018-10-19T19:22:48.492Z,10.50
2018-10-19T19:25:28.672Z,10.50
2018-10-19T19:28:03.585Z,10.50
2018-10-19T19:30:38.366Z,10.40
2018-10-19T19:33:18.291Z,10.30
2018-10-19T19:35:53.018Z,10.30
2018-10-19T19:38:27.873Z,10.30
2018-10-19T19:41:07.868Z,10.20
2018-10-19T19:43:42.813Z,10.20
2018-10-19T19:46:17.746Z,10.00
2018-10-19T19:48:57.948Z,10.10
2018-10-19T19:51:32.843Z,10.10
2018-10-19T19:54:09.441Z,10.10
2018-10-19T19:56:44.583Z,10.10
2018-10-19T19:59:20.096Z,10.00
2018-10-19T20:01:54.937Z,10.00
2018-10-19T20:04:29.821Z,9.90
2018-10-19T20:07:04.974Z,9.90
2018-10-19T20:09:39.689Z,9.90
2018-10-19T20:12:14.510Z,9.80
2018-10-19T20:14:49.617Z,9.70
2018-10-19T20:17:24.456Z,9.70
2018-10-19T20:19:59.096Z,9.60
2018-10-19T20:22:33.828Z,9.60
2018-10-19T20:25:10.066Z,9.50
2018-10-19T20:27:44.830Z,9.50
2018-10-19T20:30:19.729Z,9.40
2018-10-19T20:32:54.553Z,9.40
2018-10-19T20:35:29.597Z,9.40
2018-10-19T20:38:04.324Z,9.40
2018-10-19T20:40:39.305Z,9.30
2018-10-19T20:43:14.205Z,9.20
2018-10-19T20:45:49.066Z,9.10
2018-10-19T20:48:23.892Z,9.10
2018-10-19T20:50:58.722Z,9.10
2018-10-19T20:53:33.416Z,9.10
2018-10-19T20:56:08.170Z,9.00
2018-10-19T20:58:43.263Z,8.90
2018-10-19T21:01:17.922Z,8.90
2018-10-19T21:03:52.944Z,8.90
2018-10-19T21:06:27.857Z,8.80
2018-10-19T21:09:02.683Z,8.90
2018-10-19T21:11:38.350Z,8.80
2018-10-19T21:14:13.236Z,8.70
2018-10-19T21:16:48.126Z,8.70
2018-10-19T21:19:22.994Z,8.70
2018-10-19T21:21:57.974Z,8.60
2018-10-19T21:24:33.074Z,8.50
2018-10-19T21:27:07.899Z,8.50
2018-10-19T21:29:42.928Z,8.50
2018-10-19T21:32:17.923Z,8.50
2018-10-19T21:34:53.170Z,8.50
2018-10-19T21:37:28.171Z,8.50
2018-10-19T21:40:03.410Z,8.40
2018-10-19T21:42:38.447Z,8.40
2018-10-19T21:45:13.298Z,8.30
2018-10-19T21:47:48.134Z,8.30
2018-10-19T21:50:23.678Z,8.30
2018-10-19T21:52:58.509Z,8.30
2018-10-19T21:55:33.388Z,8.20
2018-10-19T21:58:08.325Z,8.30
2018-10-19T22:00:43.299Z,8.30
2018-10-19T22:03:18.017Z,8.20
2018-10-19T22:05:52.765Z,8.20
2018-10-19T22:08:27.446Z,8.10
2018-10-19T22:11:02.404Z,7.90
2018-10-19T22:13:37.385Z,7.80
2018-10-19T22:16:12.223Z,7.70
2018-10-19T22:18:46.922Z,7.90
2018-10-19T22:21:21.737Z,7.80
2018-10-19T22:23:56.466Z,7.80
2018-10-19T22:26:31.591Z,7.80
2018-10-19T22:29:06.281Z,7.80
2018-10-19T22:31:41.385Z,7.80
2018-10-19T22:34:16.410Z,7.80
2018-10-19T22:36:51.186Z,7.80
2018-10-19T22:39:25.773Z,7.70
2018-10-19T22:42:00.692Z,7.70
2018-10-19T22:44:35.762Z,7.60
2018-10-19T22:47:10.554Z,7.60
2018-10-19T22:49:45.727Z,7.60
2018-10-19T22:52:20.527Z,7.60
2018-10-19T22:54:55.484Z,7.60
2018-10-19T22:57:30.486Z,7.70
2018-10-19T23:00:06.229Z,7.60
2018-10-19T23:02:41.276Z,7.60
2018-10-19T23:05:16.308Z,7.60
2018-10-19T23:07:51.122Z,7.50
2018-10-19T23:10:25.788Z,7.50
2018-10-19T23:13:00.543Z,7.50
2018-10-19T23:15:35.242Z,7.40
2018-10-19T23:18:09.950Z,7.10
2018-10-19T23:20:44.991Z,7.20
2018-10-19T23:23:19.719Z,7.10
2018-10-19T23:25:54.541Z,7.00
2018-10-19T23:28:29.277Z,7.10
2018-10-19T23:31:04.125Z,7.10
2018-10-19T23:33:38.849Z,7.00
2018-10-19T23:36:13.717Z,6.90
2018-10-19T23:38:48.601Z,7.00
2018-10-19T23:41:23.275Z,7.00
2018-10-19T23:43:57.905Z,7.00
2018-10-19T23:46:34.556Z,7.10
2018-10-19T23:49:09.875Z,7.10
2018-10-19T23:51:44.782Z,7.10
2018-10-19T23:54:19.610Z,7.10
2018-10-19T23:56:54.501Z,7.00
2018-10-19T23:59:29.306Z,7.00
